createdAt,value
2018-04-21T00:00:45.391Z,7.51
2018-04-21T00:01:54.856Z,7.39
2018-04-21T00:03:04.325Z,7.41
2018-04-21T00:04:14.332Z,7.43
2018-04-21T00:05:24.334Z,7.4
2018-04-21T00:06:34.433Z,7.37
2018-04-21T00:07:44.435Z,7.4
2018-04-21T00:08:54.443Z,7.33
2018-04-21T00:10:03.642Z,7.31
2018-04-21T00:11:13.384Z,7.26
2018-04-21T00:12:23.386Z,7.22
2018-04-21T00:13:33.123Z,7.15
2018-04-21T00:14:42.874Z,7.18
2018-04-21T00:15:52.869Z,7.18
2018-04-21T00:17:02.342Z,7.14
2018-04-21T00:18:11.910Z,7.15
2018-04-21T00:19:21.924Z,7.21
2018-04-21T00:20:31.932Z,7.14
2018-04-21T00:21:41.682Z,7.26
2018-04-21T00:22:51.696Z,7.37
2018-04-21T00:24:01.484Z,7.33
2018-04-21T00:25:10.953Z,7.48
2018-04-21T00:26:20.690Z,7.55
2018-04-21T00:27:30.702Z,7.62
2018-04-21T00:28:40.703Z,7.7
2018-04-21T00:29:50.712Z,7.72
2018-04-21T00:31:00.456Z,7.75
2018-04-21T00:32:10.188Z,7.77
2018-04-21T00:33:20.185Z,7.81
2018-04-21T00:34:30.191Z,7.81
2018-04-21T00:35:39.940Z,7.81
2018-04-21T00:36:49.949Z,7.61
2018-04-21T00:37:59.691Z,7.59
2018-04-21T00:39:09.426Z,7.47
2018-04-21T00:40:19.433Z,7.37
2018-04-21T00:41:29.434Z,7.28
2018-04-21T00:42:38.905Z,7.31
2018-04-21T00:43:48.667Z,7.18
2018-04-21T00:44:58.404Z,7.15
2018-04-21T00:46:08.139Z,7.14
2018-04-21T00:47:17.610Z,7.21
2018-04-21T00:48:27.073Z,7.04
2018-04-21T00:49:37.087Z,7.07
2018-04-21T00:50:47.100Z,7.05
2018-04-21T00:51:56.843Z,7.04
2018-04-21T00:53:06.043Z,7.08
2018-04-21T00:54:16.054Z,7.18
2018-04-21T00:55:26.060Z,7.21
2018-04-21T00:56:35.795Z,7.18
2018-04-21T00:57:45.803Z,7.03
2018-04-21T00:58:55.596Z,7.08
2018-04-21T01:00:05.335Z,7.14
2018-04-21T01:01:15.068Z,7.23
2018-04-21T01:02:24.536Z,7.26
2018-04-21T01:03:34.271Z,7.25
2018-04-21T01:04:44.271Z,7.26
2018-04-21T01:05:54.273Z,7.37
2018-04-21T01:07:04.274Z,7.39
2018-04-21T01:08:14.274Z,7.36
2018-04-21T01:09:24.276Z,7.4
2018-04-21T01:10:34.008Z,7.26
2018-04-21T01:11:44.013Z,7.28
2018-04-21T01:12:53.485Z,7.26
2018-04-21T01:14:03.485Z,7.37
2018-04-21T01:15:13.492Z,7.4
2018-04-21T01:16:23.505Z,7.28
2018-04-21T01:17:33.514Z,7.29
2018-04-21T01:18:43.253Z,7.25
2018-04-21T01:19:53.257Z,7.29
2018-04-21T01:21:03.260Z,7.14
2018-04-21T01:22:12.733Z,7.23
2018-04-21T01:23:22.466Z,7.18
2018-04-21T01:24:31.673Z,7.19
2018-04-21T01:25:41.404Z,7.18
2018-04-21T01:26:51.144Z,7.23
2018-04-21T01:28:01.160Z,7.18
2018-04-21T01:29:11.172Z,7.18
2018-04-21T01:30:20.904Z,7.19
2018-04-21T01:31:30.379Z,7.22
2018-04-21T01:32:40.114Z,7.25
2018-04-21T01:33:50.119Z,7.18
2018-04-21T01:34:59.592Z,7.31
2018-04-21T01:36:09.331Z,7.29
2018-04-21T01:37:19.339Z,7.1
2018-04-21T01:38:29.090Z,7.14
2018-04-21T01:39:38.824Z,7.18
2018-04-21T01:40:48.560Z,7.21
2018-04-21T01:41:58.562Z,7.15
2018-04-21T01:43:08.565Z,7.19
2018-04-21T01:44:18.298Z,7.22
2018-04-21T01:45:28.300Z,7.18
2018-04-21T01:46:38.300Z,7.21
2018-04-21T01:47:48.311Z,7.13
2018-04-21T01:48:58.305Z,7.15
2018-04-21T01:50:08.312Z,7.18
2018-04-21T01:51:18.315Z,7.15
2018-04-21T01:52:28.310Z,7.04
2018-04-21T01:53:38.042Z,6.96
2018-04-21T01:54:48.096Z,7.04
2018-04-21T01:55:58.114Z,7.03
2018-04-21T01:57:07.315Z,7
2018-04-21T01:58:17.050Z,6.97
2018-04-21T01:59:27.049Z,6.9
2018-04-21T02:00:36.785Z,6.92
2018-04-21T02:01:46.783Z,6.89
2018-04-21T02:02:56.292Z,6.85
2018-04-21T02:04:06.030Z,6.9
2018-04-21T02:05:15.808Z,6.75
2018-04-21T02:06:25.805Z,6.74
2018-04-21T02:07:35.809Z,6.72
2018-04-21T02:08:45.810Z,6.77
2018-04-21T02:09:55.860Z,6.72
2018-04-21T02:11:05.326Z,6.78
2018-04-21T02:12:15.063Z,6.82
2018-04-21T02:13:25.111Z,6.82
2018-04-21T02:14:34.312Z,6.75
2018-04-21T02:15:44.048Z,6.74
2018-04-21T02:16:53.787Z,6.6
2018-04-21T02:18:03.254Z,6.64
2018-04-21T02:19:13.262Z,6.6
2018-04-21T02:20:23.002Z,6.62
2018-04-21T02:21:32.754Z,6.6
2018-04-21T02:22:42.769Z,6.59
2018-04-21T02:23:52.507Z,6.53
2018-04-21T02:25:02.236Z,6.59
2018-04-21T02:26:11.437Z,6.46
2018-04-21T02:27:21.174Z,6.47
2018-04-21T02:28:31.182Z,6.43
2018-04-21T02:29:40.653Z,6.43
2018-04-21T02:30:50.412Z,6.47
2018-04-21T02:32:00.572Z,6.38
2018-04-21T02:33:10.316Z,6.35
2018-04-21T02:34:20.323Z,6.38
2018-04-21T02:35:30.331Z,6.38
2018-04-21T02:36:40.065Z,6.19
2018-04-21T02:37:49.811Z,6.19
2018-04-21T02:38:59.548Z,6.1
2018-04-21T02:40:09.030Z,6.17
2018-04-21T02:41:18.500Z,6.13
2018-04-21T02:42:28.243Z,6.06
2018-04-21T02:43:38.263Z,6.16
2018-04-21T02:44:48.269Z,6.25
2018-04-21T02:45:58.021Z,6.26
2018-04-21T02:47:07.757Z,6.43
2018-04-21T02:48:17.507Z,6.35
2018-04-21T02:49:27.005Z,6.46
2018-04-21T02:50:36.740Z,6.44
2018-04-21T02:51:46.766Z,6.47
2018-04-21T02:52:56.781Z,6.38
2018-04-21T02:54:05.989Z,6.39
2018-04-21T02:55:16.004Z,6.5
2018-04-21T02:56:25.751Z,6.5
2018-04-21T02:57:35.486Z,6.41
2018-04-21T02:58:45.495Z,6.41
2018-04-21T02:59:55.503Z,6.35
2018-04-21T03:05:10.436Z,6.19
2018-04-21T03:06:20.433Z,6.26
2018-04-21T03:07:30.169Z,6.15
2018-04-21T03:08:39.907Z,6.09
2018-04-21T03:09:49.692Z,6.02
2018-04-21T03:10:59.690Z,5.92
2018-04-21T03:12:09.421Z,6.02
2018-04-21T03:13:18.896Z,5.9
2018-04-21T03:14:28.699Z,5.84
2018-04-21T03:15:38.431Z,5.84
2018-04-21T03:16:48.170Z,5.84
2018-04-21T03:17:57.650Z,5.81
2018-04-21T03:19:07.393Z,5.9
2018-04-21T03:20:16.921Z,5.88
2018-04-21T03:21:26.762Z,5.98
2018-04-21T03:22:36.231Z,6.05
2018-04-21T03:23:46.228Z,6.15
2018-04-21T03:24:56.233Z,6.29
2018-04-21T03:26:05.966Z,6.38
2018-04-21T03:27:15.968Z,6.38
2018-04-21T03:28:25.707Z,6.35
2018-04-21T03:29:35.175Z,6.44
2018-04-21T03:30:44.913Z,6.49
2018-04-21T03:31:54.651Z,6.38
2018-04-21T03:33:04.119Z,6.41
2018-04-21T03:34:13.588Z,6.32
2018-04-21T03:35:23.591Z,6.34
2018-04-21T03:36:33.324Z,6.28
2018-04-21T03:37:43.324Z,6.13
2018-04-21T03:38:53.329Z,6.15
2018-04-21T03:40:02.790Z,6.12
2018-04-21T03:41:12.808Z,6.13
2018-04-21T03:42:22.809Z,6.05
2018-04-21T03:43:31.751Z,6.06
2018-04-21T03:44:41.485Z,6.19
2018-04-21T03:45:51.509Z,6.25
2018-04-21T03:47:01.250Z,6.35
2018-04-21T03:48:11.258Z,6.52
2018-04-21T03:49:21.277Z,6.7
2018-04-21T03:50:31.326Z,6.78
2018-04-21T03:51:41.328Z,6.9
2018-04-21T03:52:51.322Z,6.97
2018-04-21T03:54:01.325Z,7.08
2018-04-21T03:55:11.053Z,7.15
2018-04-21T03:56:21.063Z,7.14
2018-04-21T03:57:31.064Z,7.19
2018-04-21T03:58:41.062Z,7.32
2018-04-21T03:59:51.060Z,7.29
2018-04-21T04:01:00.532Z,7.25
2018-04-21T04:02:10.540Z,7.26
2018-04-21T04:03:20.276Z,7.23
2018-04-21T04:04:30.020Z,7.26
2018-04-21T04:05:39.492Z,7.14
2018-04-21T04:06:49.138Z,7.1
2018-04-21T04:07:59.193Z,7.19
2018-04-21T04:09:08.927Z,7.08
2018-04-21T04:10:18.687Z,7.04
2018-04-21T04:11:28.415Z,7.05
2018-04-21T04:12:38.158Z,6.9
2018-04-21T04:13:47.900Z,6.89
2018-04-21T04:14:57.907Z,6.8
2018-04-21T04:16:07.921Z,6.74
2018-04-21T04:17:17.928Z,6.82
2018-04-21T04:18:27.399Z,6.72
2018-04-21T04:19:37.173Z,6.68
2018-04-21T04:20:46.641Z,6.74
2018-04-21T04:21:56.635Z,6.74
2018-04-21T04:23:06.112Z,6.6
2018-04-21T04:24:16.144Z,6.59
2018-04-21T04:25:25.892Z,6.57
2018-04-21T04:26:35.623Z,6.5
2018-04-21T04:27:45.632Z,6.49
2018-04-21T04:28:54.833Z,6.47
2018-04-21T04:30:04.838Z,6.49
2018-04-21T04:31:14.844Z,6.47
2018-04-21T04:32:24.842Z,6.44
2018-04-21T04:33:34.313Z,6.44
2018-04-21T04:34:43.784Z,6.39
2018-04-21T04:35:53.259Z,6.38
2018-04-21T04:37:02.994Z,6.31
2018-04-21T04:38:12.733Z,6.19
2018-04-21T04:39:22.742Z,6.32
2018-04-21T04:40:32.748Z,6.36
2018-04-21T04:41:42.485Z,6.46
2018-04-21T04:42:52.271Z,6.53
2018-04-21T04:44:02.279Z,6.59
2018-04-21T04:45:11.748Z,6.7
2018-04-21T04:46:21.483Z,6.87
2018-04-21T04:47:31.210Z,6.96
2018-04-21T04:48:40.940Z,6.85
2018-04-21T04:49:50.940Z,6.93
2018-04-21T04:51:00.670Z,6.95
2018-04-21T04:52:10.679Z,6.87
2018-04-21T04:53:20.734Z,6.92
2018-04-21T04:54:30.792Z,6.93
2018-04-21T04:55:40.264Z,6.9
2018-04-21T04:56:50.271Z,6.92
2018-04-21T04:57:59.737Z,6.93
2018-04-21T04:59:09.756Z,6.82
2018-04-21T05:00:19.488Z,6.89
2018-04-21T05:01:29.221Z,6.96
2018-04-21T05:02:38.693Z,6.92
2018-04-21T05:03:48.691Z,6.92
2018-04-21T05:04:58.698Z,6.77
2018-04-21T05:06:07.899Z,6.7
2018-04-21T05:07:17.105Z,6.6
2018-04-21T05:08:26.847Z,6.68
2018-04-21T05:09:36.586Z,6.53
2018-04-21T05:10:46.372Z,6.47
2018-04-21T05:11:56.110Z,6.38
2018-04-21T05:13:06.118Z,6.43
2018-04-21T05:14:16.127Z,6.49
2018-04-21T05:15:26.130Z,6.36
2018-04-21T05:16:36.146Z,6.34
2018-04-21T05:17:46.151Z,6.35
2018-04-21T05:18:56.154Z,6.36
2018-04-21T05:20:05.895Z,6.5
2018-04-21T05:21:15.916Z,6.39
2018-04-21T05:22:25.936Z,6.39
2018-04-21T05:23:35.666Z,6.43
2018-04-21T05:24:45.664Z,6.38
2018-04-21T05:25:55.393Z,6.43
2018-04-21T05:27:05.400Z,6.59
2018-04-21T05:28:14.870Z,6.62
2018-04-21T05:29:24.872Z,6.59
2018-04-21T05:30:34.606Z,6.56
2018-04-21T05:31:44.608Z,6.72
2018-04-21T05:32:54.357Z,6.68
2018-04-21T05:34:04.094Z,6.8
2018-04-21T05:35:13.828Z,6.71
2018-04-21T05:36:23.838Z,6.78
2018-04-21T05:37:33.841Z,6.87
2018-04-21T05:38:43.845Z,6.83
2018-04-21T05:39:53.843Z,6.86
2018-04-21T05:41:03.040Z,6.89
2018-04-21T05:42:13.071Z,6.95
2018-04-21T05:43:22.806Z,6.96
2018-04-21T05:44:32.538Z,6.92
2018-04-21T05:45:42.410Z,6.92
2018-04-21T05:46:51.973Z,6.95
2018-04-21T05:48:01.979Z,6.9
2018-04-21T05:49:11.983Z,6.89
2018-04-21T05:50:21.727Z,6.96
2018-04-21T05:51:31.784Z,7.07
2018-04-21T05:52:41.522Z,7.11
2018-04-21T05:53:50.988Z,7.01
2018-04-21T05:55:00.990Z,7.01
2018-04-21T05:56:10.458Z,7.05
2018-04-21T05:57:20.191Z,7.1
2018-04-21T05:58:29.931Z,7.1
2018-04-21T05:59:39.129Z,7.08
2018-04-21T06:00:48.595Z,7.1
2018-04-21T06:01:58.327Z,7.18
2018-04-21T06:03:08.062Z,7.21
2018-04-21T06:04:18.068Z,7.13
2018-04-21T06:05:28.075Z,7.31
2018-04-21T06:06:38.081Z,7.29
2018-04-21T06:07:47.813Z,7.33
2018-04-21T06:08:57.820Z,7.32
2018-04-21T06:10:07.834Z,7.33
2018-04-21T06:11:17.300Z,7.29
2018-04-21T06:12:27.308Z,7.39
2018-04-21T06:13:37.046Z,7.39
2018-04-21T06:14:46.784Z,7.4
2018-04-21T06:15:56.627Z,7.4
2018-04-21T06:17:06.366Z,7.39
2018-04-21T06:18:15.824Z,7.5
2018-04-21T06:19:25.563Z,7.64
2018-04-21T06:20:35.572Z,7.53
2018-04-21T06:21:45.307Z,7.66
2018-04-21T06:22:55.047Z,7.8
2018-04-21T06:24:05.057Z,7.75
2018-04-21T06:25:14.795Z,7.75
2018-04-21T06:26:24.815Z,7.75
2018-04-21T06:27:34.290Z,7.8
2018-04-21T06:28:44.300Z,7.91
2018-04-21T06:29:54.321Z,7.93
2018-04-21T06:31:03.791Z,7.9
2018-04-21T06:32:13.802Z,8.01
2018-04-21T06:33:23.584Z,7.96
2018-04-21T06:34:33.061Z,7.96
2018-04-21T06:35:42.794Z,8.02
2018-04-21T06:36:52.798Z,8.01
2018-04-21T06:38:02.810Z,7.98
2018-04-21T06:39:12.821Z,8.09
2018-04-21T06:40:22.289Z,8.14
2018-04-21T06:41:31.762Z,8.16
2018-04-21T06:42:41.505Z,8.24
2018-04-21T06:43:51.508Z,8.18
2018-04-21T06:45:01.249Z,8.17
2018-04-21T06:46:10.450Z,8.27
2018-04-21T06:47:20.452Z,8.18
2018-04-21T06:48:30.195Z,8.28
2018-04-21T06:49:39.931Z,8.36
2018-04-21T06:50:49.667Z,8.28
2018-04-21T06:51:59.682Z,8.31
2018-04-21T06:53:09.263Z,8.35
2018-04-21T06:54:19.004Z,8.38
2018-04-21T06:55:28.747Z,8.39
2018-04-21T06:56:38.840Z,8.42
2018-04-21T06:57:48.861Z,8.45
2018-04-21T06:58:58.598Z,8.53
2018-04-21T07:00:08.338Z,8.56
2018-04-21T07:01:18.079Z,8.75
2018-04-21T07:02:28.082Z,8.87
2018-04-21T07:03:37.836Z,9.09
2018-04-21T07:04:47.850Z,9.09
2018-04-21T07:05:57.955Z,9.16
2018-04-21T07:07:07.771Z,9.11
2018-04-21T07:08:17.826Z,9.08
2018-04-21T07:09:26.759Z,9.11
2018-04-21T07:10:36.497Z,9.11
2018-04-21T07:11:45.971Z,9.18
2018-04-21T07:12:55.708Z,9.12
2018-04-21T07:14:05.718Z,9.36
2018-04-21T07:15:15.453Z,9.37
2018-04-21T07:16:25.206Z,9.49
2018-04-21T07:17:35.215Z,9.52
2018-04-21T07:18:45.214Z,9.62
2018-04-21T07:19:54.955Z,9.63
2018-04-21T07:21:04.436Z,9.76
2018-04-21T07:22:14.487Z,9.76
2018-04-21T07:23:24.487Z,9.9
2018-04-21T07:24:34.489Z,9.92
2018-04-21T07:25:44.489Z,9.95
2018-04-21T07:26:54.228Z,10.07
2018-04-21T07:28:03.427Z,10.09
2018-04-21T07:29:13.435Z,10.13
2018-04-21T07:30:23.440Z,10.23
2018-04-21T07:31:33.444Z,10.28
2018-04-21T07:32:43.174Z,10.31
2018-04-21T07:33:53.179Z,10.36
2018-04-21T07:35:02.933Z,10.36
2018-04-21T07:36:12.940Z,10.51
2018-04-21T07:37:22.682Z,10.45
2018-04-21T07:38:32.428Z,10.51
2018-04-21T07:39:42.167Z,10.51
2018-04-21T07:40:52.176Z,10.53
2018-04-21T07:42:02.175Z,10.58
2018-04-21T07:43:11.908Z,10.61
2018-04-21T07:44:21.649Z,10.62
2018-04-21T07:45:31.119Z,10.57
2018-04-21T07:46:40.590Z,10.57
2018-04-21T07:47:50.407Z,10.71
2018-04-21T07:48:59.999Z,10.65
2018-04-21T07:50:09.948Z,10.75
2018-04-21T07:51:20.046Z,10.71
2018-04-21T07:52:29.788Z,10.75
2018-04-21T07:53:39.805Z,10.77
2018-04-21T07:54:49.542Z,10.83
2018-04-21T07:55:59.572Z,10.71
2018-04-21T07:57:09.326Z,10.84
2018-04-21T07:58:19.368Z,10.8
2018-04-21T07:59:29.388Z,10.86
2018-04-21T08:00:39.126Z,10.9
2018-04-21T08:01:48.595Z,10.89
2018-04-21T08:02:58.331Z,10.89
2018-04-21T08:04:08.342Z,11.01
2018-04-21T08:05:18.076Z,10.98
2018-04-21T08:06:28.079Z,11.07
2018-04-21T08:07:37.825Z,11.04
2018-04-21T08:08:47.296Z,11.07
2018-04-21T08:09:57.300Z,11.08
2018-04-21T08:11:07.045Z,11.07
2018-04-21T08:12:17.150Z,11.15
2018-04-21T08:13:27.212Z,11.12
2018-04-21T08:14:36.953Z,11.05
2018-04-21T08:15:46.952Z,11.07
2018-04-21T08:16:56.424Z,11.08
2018-04-21T08:18:06.171Z,11.19
2018-04-21T08:19:15.637Z,11.19
2018-04-21T08:20:25.375Z,11.08
2018-04-21T08:21:34.854Z,11.13
2018-04-21T08:22:44.593Z,11.2
2018-04-21T08:23:54.712Z,11.18
2018-04-21T08:25:04.629Z,11.27
2018-04-21T08:26:14.419Z,11.13
2018-04-21T08:27:24.423Z,11.19
2018-04-21T08:28:33.893Z,11.16
2018-04-21T08:29:43.634Z,11.05
2018-04-21T08:30:53.639Z,11.2
2018-04-21T08:32:03.373Z,11.18
2018-04-21T08:33:13.108Z,11.18
2018-04-21T08:34:22.314Z,11.22
2018-04-21T08:35:32.061Z,11.25
2018-04-21T08:36:41.530Z,11.38
2018-04-21T08:37:51.311Z,11.43
2018-04-21T08:39:01.397Z,11.37
2018-04-21T08:40:11.139Z,11.43
2018-04-21T08:41:20.984Z,11.33
2018-04-21T08:42:30.720Z,11.44
2018-04-21T08:43:40.588Z,11.45
2018-04-21T08:44:50.147Z,11.51
2018-04-21T08:46:00.160Z,11.56
2018-04-21T08:47:09.901Z,11.56
2018-04-21T08:48:19.375Z,11.58
2018-04-21T08:49:29.405Z,11.53
2018-04-21T08:50:39.410Z,11.56
2018-04-21T08:51:49.423Z,11.55
2018-04-21T08:52:59.165Z,11.59
2018-04-21T08:54:08.638Z,11.62
2018-04-21T08:55:18.375Z,11.74
2018-04-21T08:56:28.224Z,11.78
2018-04-21T08:57:37.970Z,11.8
2018-04-21T08:58:47.717Z,11.76
2018-04-21T08:59:57.508Z,11.76
2018-04-21T09:01:07.246Z,11.78
2018-04-21T09:02:17.268Z,11.73
2018-04-21T09:03:26.743Z,11.77
2018-04-21T09:04:36.757Z,11.83
2018-04-21T09:05:46.225Z,11.81
2018-04-21T09:06:55.965Z,11.78
2018-04-21T09:08:05.712Z,11.63
2018-04-21T09:09:15.452Z,11.62
2018-04-21T09:10:25.508Z,11.55
2018-04-21T09:11:35.156Z,11.65
2018-04-21T09:12:44.586Z,11.8
2018-04-21T09:13:54.594Z,11.89
2018-04-21T09:15:04.345Z,11.81
2018-04-21T09:16:13.599Z,11.77
2018-04-21T09:17:23.340Z,11.93
2018-04-21T09:18:33.089Z,11.99
2018-04-21T09:19:42.826Z,11.99
2018-04-21T09:20:52.564Z,12.03
2018-04-21T09:22:02.631Z,12.11
2018-04-21T09:23:12.715Z,12.14
2018-04-21T09:24:22.189Z,12.14
2018-04-21T09:25:32.201Z,12.14
2018-04-21T09:26:41.946Z,12.17
2018-04-21T09:27:51.974Z,12.28
2018-04-21T09:29:01.789Z,12.18
2018-04-21T09:30:11.531Z,12.29
2018-04-21T09:31:21.532Z,12.26
2018-04-21T09:32:31.548Z,12.35
2018-04-21T09:33:41.175Z,12.37
2018-04-21T09:34:51.371Z,12.33
2018-04-21T09:36:00.857Z,12.37
2018-04-21T09:37:10.598Z,12.25
2018-04-21T09:38:20.621Z,12.21
2018-04-21T09:39:30.362Z,12.21
2018-04-21T09:40:40.374Z,12.28
2018-04-21T09:41:50.111Z,12.39
2018-04-21T09:42:59.855Z,12.37
2018-04-21T09:44:09.869Z,12.4
2018-04-21T09:45:19.877Z,12.51
2018-04-21T09:46:29.612Z,12.54
2018-04-21T09:47:39.616Z,12.54
2018-04-21T09:48:49.089Z,12.55
2018-04-21T09:49:58.827Z,12.4
2018-04-21T09:51:08.301Z,12.37
2018-04-21T09:52:18.302Z,12.37
2018-04-21T09:53:28.317Z,12.54
2018-04-21T09:54:38.056Z,12.58
2018-04-21T09:55:47.800Z,12.58
2018-04-21T09:56:57.811Z,12.58
2018-04-21T09:58:07.556Z,12.47
2018-04-21T09:59:17.334Z,12.45
2018-04-21T10:00:27.143Z,12.37
2018-04-21T10:01:36.881Z,12.21
2018-04-21T10:02:46.935Z,11.99
2018-04-21T10:03:56.950Z,11.89
2018-04-21T10:05:06.431Z,11.85
2018-04-21T10:06:15.907Z,11.62
2018-04-21T10:07:25.649Z,11.65
2018-04-21T10:08:34.856Z,11.56
2018-04-21T10:09:44.338Z,11.58
2018-04-21T10:10:54.342Z,11.62
2018-04-21T10:12:03.548Z,11.55
2018-04-21T10:13:13.454Z,11.71
2018-04-21T10:14:23.720Z,11.83
2018-04-21T10:15:33.459Z,11.83
2018-04-21T10:16:43.205Z,11.96
2018-04-21T10:17:52.945Z,12.05
2018-04-21T10:19:02.946Z,12.23
2018-04-21T10:20:12.960Z,12.39
2018-04-21T10:21:22.967Z,12.37
2018-04-21T10:22:32.976Z,12.5
2018-04-21T10:23:42.457Z,12.58
2018-04-21T10:24:52.331Z,12.61
2018-04-21T10:26:02.238Z,12.72
2018-04-21T10:27:11.171Z,12.48
2018-04-21T10:28:20.649Z,12.53
2018-04-21T10:29:30.394Z,12.57
2018-04-21T10:30:39.863Z,12.62
2018-04-21T10:31:49.336Z,12.62
2018-04-21T10:32:58.807Z,12.68
2018-04-21T10:34:08.547Z,12.8
2018-04-21T10:35:18.284Z,12.73
2018-04-21T10:36:28.038Z,12.63
2018-04-21T10:37:38.100Z,12.83
2018-04-21T10:38:47.906Z,12.9
2018-04-21T10:39:57.839Z,12.87
2018-04-21T10:41:06.778Z,12.86
2018-04-21T10:42:16.795Z,13.02
2018-04-21T10:43:26.542Z,12.99
2018-04-21T10:44:35.753Z,13.05
2018-04-21T10:45:45.574Z,13.08
2018-04-21T10:46:55.366Z,13.11
2018-04-21T10:48:05.379Z,13.17
2018-04-21T10:49:15.386Z,13.19
2018-04-21T10:50:25.400Z,13.17
2018-04-21T10:51:35.407Z,13.12
2018-04-21T10:52:44.884Z,13.24
2018-04-21T10:53:54.629Z,13.31
2018-04-21T10:55:03.882Z,13.2
2018-04-21T10:56:13.618Z,13.24
2018-04-21T10:57:23.359Z,13.2
2018-04-21T10:58:33.097Z,13.3
2018-04-21T10:59:42.893Z,13.27
2018-04-21T11:00:52.369Z,13.27
2018-04-21T11:02:01.840Z,13.31
2018-04-21T11:03:11.885Z,13.28
2018-04-21T11:04:21.892Z,13.28
2018-04-21T11:05:31.642Z,13.3
2018-04-21T11:06:41.386Z,13.3
2018-04-21T11:07:51.394Z,13.23
2018-04-21T11:09:00.864Z,13.3
2018-04-21T11:10:10.337Z,13.19
2018-04-21T11:11:19.816Z,13.23
2018-04-21T11:12:29.828Z,13.21
2018-04-21T11:13:39.854Z,13.23
2018-04-21T11:14:49.973Z,13.31
2018-04-21T11:15:59.984Z,13.4
2018-04-21T11:17:09.457Z,13.52
2018-04-21T11:18:19.207Z,13.8
2018-04-21T11:19:29.260Z,13.95
2018-04-21T11:20:39.279Z,14.25
2018-04-21T11:21:49.289Z,14.53
2018-04-21T11:22:59.303Z,14.89
2018-04-21T11:24:08.874Z,15.17
2018-04-21T11:25:18.608Z,15.32
2018-04-21T11:26:28.349Z,15.8
2018-04-21T11:27:38.089Z,16.16
2018-04-21T11:28:48.135Z,16.32
2018-04-21T11:29:58.158Z,16.57
2018-04-21T11:31:07.901Z,16.55
2018-04-21T11:32:17.909Z,16.77
2018-04-21T11:33:27.649Z,17.07
2018-04-21T11:34:37.669Z,16.95
2018-04-21T11:35:47.418Z,16.82
2018-04-21T11:36:57.440Z,17.13
2018-04-21T11:38:06.921Z,17.22
2018-04-21T11:39:16.937Z,17.41
2018-04-21T11:40:26.691Z,17.57
2018-04-21T11:41:36.178Z,17.87
2018-04-21T11:42:45.937Z,17.84
2018-04-21T11:43:55.689Z,17.82
2018-04-21T11:45:05.443Z,17.94
2018-04-21T11:46:15.187Z,17.8
2018-04-21T11:47:24.943Z,17.52
2018-04-21T11:48:34.699Z,17.78
2018-04-21T11:49:44.718Z,17.9
2018-04-21T11:50:54.755Z,18.03
2018-04-21T11:52:03.976Z,18.45
2018-04-21T11:53:13.569Z,18.66
2018-04-21T11:54:23.328Z,18.85
2018-04-21T11:55:33.353Z,19.11
2018-04-21T11:56:43.378Z,19.26
2018-04-21T11:57:53.394Z,19.24
2018-04-21T11:59:03.429Z,19.48
2018-04-21T12:00:12.646Z,19.44
2018-04-21T12:01:22.663Z,19.55
2018-04-21T12:02:32.776Z,19.74
2018-04-21T12:03:42.538Z,19.41
2018-04-21T12:04:52.292Z,19.79
2018-04-21T12:06:02.320Z,20.15
2018-04-21T12:07:12.070Z,20.03
2018-04-21T12:08:22.091Z,19.87
2018-04-21T12:09:32.109Z,19.41
2018-04-21T12:10:42.124Z,19.38
2018-04-21T12:11:51.896Z,19.19
2018-04-21T12:13:01.649Z,19.16
2018-04-21T12:14:11.139Z,19.12
2018-04-21T12:15:20.889Z,19.09
2018-04-21T12:16:30.642Z,19.38
2018-04-21T12:17:40.394Z,19.66
2018-04-21T12:18:50.146Z,19.08
2018-04-21T12:19:59.894Z,19.3
2018-04-21T12:21:09.687Z,19.19
2018-04-21T12:22:19.446Z,19.27
2018-04-21T12:23:28.774Z,19.11
2018-04-21T12:24:38.530Z,19.26
2018-04-21T12:25:48.548Z,19.01
2018-04-21T12:26:58.297Z,19.04
2018-04-21T12:28:08.315Z,18.83
2018-04-21T12:29:18.337Z,18.31
2018-04-21T12:30:28.362Z,18.16
2018-04-21T12:31:37.579Z,18.33
2018-04-21T12:32:47.060Z,18.36
2018-04-21T12:33:57.073Z,17.78
2018-04-21T12:35:06.563Z,17.93
2018-04-21T12:36:16.580Z,18.13
2018-04-21T12:37:26.341Z,18.43
2018-04-21T12:38:36.366Z,18.48
2018-04-21T12:39:46.118Z,18.39
2018-04-21T12:40:55.868Z,18.88
2018-04-21T12:42:05.628Z,18.92
2018-04-21T12:43:15.648Z,18.86
2018-04-21T12:44:25.683Z,19.19
2018-04-21T12:45:35.437Z,18.96
2018-04-21T12:46:45.192Z,19.23
2018-04-21T12:47:54.945Z,19.39
2018-04-21T12:49:04.988Z,19.6
2018-04-21T12:50:14.743Z,19.7
2018-04-21T12:51:24.525Z,19.7
2018-04-21T12:52:34.012Z,19.67
2018-04-21T12:53:43.768Z,19.59
2018-04-21T12:54:53.799Z,19.66
2018-04-21T12:56:03.556Z,19.57
2018-04-21T12:57:12.772Z,19.79
2018-04-21T12:58:22.794Z,19.99
2018-04-21T12:59:32.282Z,19.96
2018-04-21T13:00:42.081Z,20.12
2018-04-21T13:01:51.837Z,20.55
2018-04-21T13:03:02.044Z,20.85
2018-04-21T13:04:12.118Z,20.6
2018-04-21T13:05:21.868Z,21.05
2018-04-21T13:06:31.894Z,21.38
2018-04-21T13:07:41.652Z,21.81
2018-04-21T13:08:51.665Z,22.14
2018-04-21T13:10:01.420Z,21.29
2018-04-21T13:11:11.178Z,21.4
2018-04-21T13:12:21.202Z,21.69
2018-04-21T13:13:30.692Z,20.7
2018-04-21T13:14:40.719Z,20.64
2018-04-21T13:15:50.472Z,20.77
2018-04-21T13:17:00.232Z,20.92
2018-04-21T13:18:09.994Z,20.9
2018-04-21T13:19:19.752Z,21.01
2018-04-21T13:20:29.513Z,20.66
2018-04-21T13:21:39.534Z,21.07
2018-04-21T13:22:49.285Z,21.04
2018-04-21T13:23:59.307Z,21.33
2018-04-21T13:25:09.323Z,20.92
2018-04-21T13:26:19.075Z,20.78
2018-04-21T13:27:29.113Z,20.93
2018-04-21T13:28:38.872Z,20.85
2018-04-21T13:29:48.912Z,20.71
2018-04-21T13:30:58.942Z,20.3
2018-04-21T13:32:08.695Z,20.59
2018-04-21T13:33:18.448Z,20.63
2018-04-21T13:34:28.204Z,20.21
2018-04-21T13:35:37.959Z,20.18
2018-04-21T13:36:47.719Z,20.19
2018-04-21T13:37:57.256Z,20.08
2018-04-21T13:39:06.743Z,20.07
2018-04-21T13:40:16.505Z,20.26
2018-04-21T13:41:26.531Z,20.26
2018-04-21T13:42:36.278Z,20.07
2018-04-21T13:43:46.397Z,20.32
2018-04-21T13:44:56.163Z,20.36
2018-04-21T13:46:05.926Z,20.32
2018-04-21T13:47:15.944Z,20.52
2018-04-21T13:48:25.722Z,20.42
2018-04-21T13:49:35.833Z,20.07
2018-04-21T13:50:45.592Z,20.3
2018-04-21T13:51:55.081Z,20.29
2018-04-21T13:53:04.847Z,20.34
2018-04-21T13:54:14.600Z,20.39
2018-04-21T13:55:24.358Z,20.34
2018-04-21T13:56:34.114Z,20.27
2018-04-21T13:57:43.868Z,19.92
2018-04-21T13:58:53.887Z,20.1
2018-04-21T14:00:03.640Z,20.52
2018-04-21T14:01:13.128Z,20.8
2018-04-21T14:02:22.612Z,20.52
2018-04-21T14:03:32.363Z,20.64
2018-04-21T14:04:42.112Z,20.64
2018-04-21T14:05:51.594Z,20.92
2018-04-21T14:07:01.711Z,20.95
2018-04-21T14:08:11.191Z,20.96
2018-04-21T14:09:20.680Z,20.52
2018-04-21T14:10:30.428Z,20.95
2018-04-21T14:11:40.447Z,21.13
2018-04-21T14:12:50.475Z,21.43
2018-04-21T14:14:00.222Z,21.47
2018-04-21T14:15:09.982Z,21.1
2018-04-21T14:16:20.008Z,21.48
2018-04-21T14:17:30.038Z,21.88
2018-04-21T14:18:40.061Z,21.83
2018-04-21T14:19:49.554Z,21.69
2018-04-21T14:20:59.577Z,21.77
2018-04-21T14:22:09.326Z,21.88
2018-04-21T14:23:18.882Z,21.85
2018-04-21T14:24:28.825Z,21.75
2018-04-21T14:25:38.308Z,21.91
2018-04-21T14:26:48.333Z,21.74
2018-04-21T14:27:57.817Z,21.48
2018-04-21T14:29:07.876Z,21.53
2018-04-21T14:30:17.898Z,21.78
2018-04-21T14:31:27.926Z,21.85
2018-04-21T14:32:37.951Z,22.25
2018-04-21T14:33:47.973Z,22.67
2018-04-21T14:34:58.123Z,22.95
2018-04-21T14:36:08.150Z,22.96
2018-04-21T14:37:17.640Z,22.89
2018-04-21T14:38:27.137Z,22.86
2018-04-21T14:39:37.473Z,22.95
2018-04-21T14:40:47.478Z,22.65
2018-04-21T14:41:57.557Z,22.88
2018-04-21T14:43:07.322Z,22.68
2018-04-21T14:44:17.081Z,22.84
2018-04-21T14:45:26.835Z,22.4
2018-04-21T14:46:36.594Z,22.36
2018-04-21T14:47:46.617Z,21.85
2018-04-21T14:48:56.645Z,21.85
2018-04-21T14:50:06.129Z,21.81
2018-04-21T14:51:15.621Z,21.75
2018-04-21T14:52:25.378Z,21.66
2018-04-21T14:53:35.401Z,21.47
2018-04-21T14:54:44.886Z,21.13
2018-04-21T14:55:54.647Z,21.08
2018-04-21T14:57:04.473Z,21.04
2018-04-21T14:58:14.608Z,20.78
2018-04-21T14:59:24.424Z,20.88
2018-04-21T15:00:33.908Z,20.92
2018-04-21T15:01:43.676Z,20.64
2018-04-21T15:02:53.697Z,20.85
2018-04-21T15:04:03.728Z,20.64
2018-04-21T15:05:13.477Z,20.39
2018-04-21T15:06:23.500Z,20.37
2018-04-21T15:07:33.264Z,20.4
2018-04-21T15:08:43.316Z,20.58
2018-04-21T15:09:53.077Z,20.42
2018-04-21T15:11:03.188Z,20.7
2018-04-21T15:12:12.941Z,20.92
2018-04-21T15:13:22.958Z,20.73
2018-04-21T15:14:32.722Z,21.04
2018-04-21T15:15:42.483Z,21.03
2018-04-21T15:16:52.244Z,21.43
2018-04-21T15:18:01.997Z,22
2018-04-21T15:19:11.479Z,22.44
2018-04-21T15:20:20.762Z,22.7